Time;durP1;ratioP1;P1;durP2;ratioP2;P2;SDS_P1;SDS_P2;PMS_P1;PMS_P2;Temp;Humidity;BMP_temperature;BMP_pressure;BME280_temperature;BME280_humidity;BME280_pressure;Samples;Min_cycle;Max_cycle;Signal;HPM_P1;HPM_P2
2022/02/01 00:01:10;;;;;;;6.13;1.83;;;;;;;2.04;100.00;98999.44;5025935;28;20732;-84
2022/02/01 00:03:39;;;;;;;2.05;1.50;;;;;;;2.02;100.00;99017.50;5020820;28;20524;-84
2022/02/01 00:06:14;;;;;;;4.65;1.20;;;;;;;1.99;100.00;99006.19;5027564;28;20393;-84
2022/02/01 00:08:47;;;;;;;3.22;1.42;;;;;;;2.01;100.00;99029.19;5026634;28;20049;-84
2022/02/01 00:11:26;;;;;;;2.70;1.58;;;;;;;2.00;100.00;99030.16;5032612;28;20075;-84
2022/02/01 00:14:05;;;;;;;2.47;1.50;;;;;;;2.00;100.00;99029.34;5028478;28;20053;-84
2022/02/01 00:17:04;;;;;;;2.03;1.35;;;;;;;2.02;100.00;99019.31;5032207;28;20049;-84
2022/02/01 00:33:47;;;;;;;2.20;1.38;;;;;;;1.88;100.00;99075.00;5031402;28;20584;-83
2022/02/01 00:36:25;;;;;;;8.45;2.05;;;;;;;1.91;100.00;99064.03;5039473;28;21876;-83
2022/02/01 00:38:58;;;;;;;4.32;2.33;;;;;;;2.01;100.00;99080.16;5036847;28;20544;-83
2022/02/01 00:41:29;;;;;;;2.30;1.20;;;;;;;2.02;100.00;99079.19;5012682;28;20477;-83
2022/02/01 00:43:55;;;;;;;5.43;1.48;;;;;;;2.02;100.00;99089.03;5022125;28;20089;-83
2022/02/01 00:46:22;;;;;;;5.95;1.52;;;;;;;2.01;100.00;99090.88;5031464;28;20457;-84
2022/02/01 00:48:49;;;;;;;2.30;1.45;;;;;;;2.09;100.00;99093.75;5029160;28;20079;-83
2022/02/01 00:51:16;;;;;;;3.30;1.10;;;;;;;2.07;100.00;99102.91;5024455;28;20042;-83
2022/02/01 00:53:43;;;;;;;3.78;2.45;;;;;;;2.02;100.00;99106.00;5033459;28;20071;-83
2022/02/01 00:56:14;;;;;;;1.08;0.93;;;;;;;2.10;100.00;99132.16;5031897;28;20096;-84
2022/02/01 00:58:41;;;;;;;1.35;0.98;;;;;;;2.01;100.00;99122.22;5032520;28;20045;-84
2022/02/01 01:01:08;;;;;;;0.80;0.77;;;;;;;1.90;100.00;99142.75;5032805;28;20488;-84
2022/02/01 01:03:35;;;;;;;1.75;1.13;;;;;;;1.78;100.00;99135.75;5020667;28;20049;-84
2022/02/01 01:06:02;;;;;;;1.02;0.75;;;;;;;1.71;100.00;99122.00;5012126;28;20162;-83
2022/02/01 01:08:29;;;;;;;0.95;0.95;;;;;;;1.81;100.00;99158.75;5019146;28;20045;-84
2022/02/01 01:10:56;;;;;;;1.33;1.00;;;;;;;1.64;100.00;99142.28;5050476;28;20052;-84
2022/02/01 01:13:51;;;;;;;7.60;1.48;;;;;;;1.56;100.00;99145.56;5051648;28;20048;-84
2022/02/01 01:16:35;;;;;;;2.65;1.30;;;;;;;1.52;100.00;99159.34;5052230;28;20052;-84
2022/02/01 01:38:44;;;;;;;4.00;1.58;;;;;;;1.44;100.00;99143.06;5034515;28;20084;-83
2022/02/01 01:43:51;;;;;;;4.45;1.30;;;;;;;1.51;100.00;99190.66;5031381;28;20063;-83
2022/02/01 01:52:48;;;;;;;;;;;;;;;1.57;100.00;99186.63;5033477;28;20042;-84
2022/02/01 01:54:46;;;;;;;12.38;2.00;;;;;;;1.52;100.00;99184.34;5031826;28;20091;-84
2022/02/01 01:57:13;;;;;;;12.45;2.25;;;;;;;1.64;100.00;99187.81;5038717;28;20041;-83
2022/02/01 01:59:41;;;;;;;7.55;1.63;;;;;;;1.59;100.00;99188.19;5033606;28;20045;-83
2022/02/01 02:02:09;;;;;;;7.72;2.22;;;;;;;1.68;100.00;99191.09;5031201;28;20041;-83
2022/02/01 02:04:36;;;;;;;5.80;1.88;;;;;;;1.62;100.00;99202.31;5030889;28;20045;-83
2022/02/01 02:07:02;;;;;;;10.45;2.70;;;;;;;1.68;100.00;99218.72;5031661;28;20049;-83
2022/02/01 02:09:29;;;;;;;7.90;2.40;;;;;;;1.54;100.00;99193.09;5034171;28;20532;-84
2022/02/01 02:12:06;;;;;;;10.57;3.17;;;;;;;1.61;100.00;99203.28;5034406;28;20052;-83
2022/02/01 02:14:33;;;;;;;10.63;2.53;;;;;;;1.58;100.00;99197.22;5030399;28;20061;-83
2022/02/01 02:17:01;;;;;;;10.07;3.22;;;;;;;1.67;100.00;99197.41;5030722;28;20077;-83
2022/02/01 02:19:31;;;;;;;8.65;2.10;;;;;;;1.63;100.00;99204.03;5031424;28;20057;-83
2022/02/01 02:22:01;;;;;;;12.70;2.10;;;;;;;1.65;100.00;99196.72;5025692;28;20133;-83
2022/02/01 02:24:29;;;;;;;7.63;2.67;;;;;;;1.53;100.00;99204.78;5031841;28;20144;-83
2022/02/01 02:26:58;;;;;;;12.10;3.58;;;;;;;1.51;100.00;99206.75;5034052;28;20045;-84
2022/02/01 02:29:25;;;;;;;13.27;3.13;;;;;;;1.67;100.00;99240.31;5039469;28;20060;-82
2022/02/01 02:31:52;;;;;;;12.57;2.72;;;;;;;1.61;100.00;99230.09;5036298;28;20080;-83
2022/02/01 02:34:19;;;;;;;14.07;2.60;;;;;;;1.66;100.00;99239.47;5032091;28;20085;-83
2022/02/01 02:36:51;;;;;;;14.88;2.60;;;;;;;1.57;100.00;99243.75;5032706;28;20095;-83
2022/02/01 02:39:28;;;;;;;4.55;1.80;;;;;;;1.63;100.00;99238.88;5032036;28;20095;-82
2022/02/01 02:42:08;;;;;;;13.35;2.50;;;;;;;1.66;100.00;99242.13;5028611;28;20403;-82
2022/02/01 02:47:19;;;;;;;15.50;3.90;;;;;;;1.72;100.00;99263.06;5029518;28;20056;-83
2022/02/01 02:49:46;;;;;;;6.97;2.38;;;;;;;1.73;100.00;99264.78;5031008;28;20046;-84
2022/02/01 02:52:12;;;;;;;18.92;2.55;;;;;;;1.70;100.00;99289.16;5030706;28;20042;-83
2022/02/01 02:54:41;;;;;;;15.93;2.88;;;;;;;1.69;100.00;99268.69;5031743;28;20056;-84
2022/02/01 02:57:08;;;;;;;21.83;5.78;;;;;;;1.56;100.00;99260.78;5027905;28;20814;-83
2022/02/01 02:59:37;;;;;;;46.60;6.47;;;;;;;1.64;100.00;99276.28;5029536;28;20051;-83
2022/02/01 03:02:05;;;;;;;13.98;3.72;;;;;;;1.45;100.00;99259.97;5037006;28;20143;-83
2022/02/01 03:04:35;;;;;;;27.77;4.03;;;;;;;1.48;100.00;99252.53;5029465;28;20038;-83
2022/02/01 03:07:05;;;;;;;29.52;4.80;;;;;;;1.50;100.00;99280.03;5028911;28;20063;-82
2022/02/01 03:09:39;;;;;;;13.02;2.72;;;;;;;1.41;100.00;99262.88;5031871;28;20045;-83
2022/02/01 03:12:12;;;;;;;24.63;4.82;;;;;;;1.51;100.00;99272.88;5033424;28;20053;-83
2022/02/01 03:14:50;;;;;;;11.60;3.28;;;;;;;1.52;100.00;99275.44;5032738;28;20434;-83
2022/02/01 03:17:23;;;;;;;19.60;3.80;;;;;;;1.58;100.00;99280.28;5029373;28;20065;-84
2022/02/01 03:19:49;;;;;;;20.10;3.03;;;;;;;1.50;100.00;99255.94;5027410;28;20045;-83
2022/02/01 03:22:17;;;;;;;16.52;2.97;;;;;;;1.56;100.00;99267.97;5030650;28;20046;-83
2022/02/01 03:24:43;;;;;;;22.98;4.45;;;;;;;1.56;100.00;99273.34;5032900;28;20084;-83
2022/02/01 03:27:12;;;;;;;24.98;3.88;;;;;;;1.59;100.00;99281.97;5026948;28;20409;-83
2022/02/01 03:29:38;;;;;;;28.83;3.83;;;;;;;1.68;100.00;99293.78;5030862;28;20136;-85
2022/02/01 03:32:06;;;;;;;14.70;2.90;;;;;;;1.60;100.00;99282.84;5032466;28;20146;-84
2022/02/01 03:34:33;;;;;;;29.00;4.15;;;;;;;1.75;100.00;99310.22;5028668;28;20144;-84
2022/02/01 03:37:00;;;;;;;21.05;3.92;;;;;;;1.67;100.00;99297.47;5024941;28;20053;-83
2022/02/01 03:39:27;;;;;;;15.73;6.60;;;;;;;1.81;100.00;99308.84;5030843;28;20451;-83
2022/02/01 03:41:53;;;;;;;20.13;3.42;;;;;;;1.66;100.00;99287.69;5029638;28;20559;-83
2022/02/01 03:44:22;;;;;;;24.33;4.13;;;;;;;1.67;100.00;99291.22;5031870;28;20068;-83
2022/02/01 03:47:00;;;;;;;20.35;3.20;;;;;;;1.75;100.00;99307.56;5026023;28;20127;-82
2022/02/01 03:49:28;;;;;;;17.88;3.33;;;;;;;1.69;100.00;99306.22;5028581;28;20046;-83
2022/02/01 03:51:58;;;;;;;18.63;2.78;;;;;;;1.79;100.00;99318.88;5028022;28;20083;-83
2022/02/01 03:54:25;;;;;;;13.55;2.83;;;;;;;1.76;100.00;99310.09;5029769;28;20058;-82
2022/02/01 03:56:52;;;;;;;24.70;2.88;;;;;;;1.68;100.00;99295.63;5032117;28;20128;-83
2022/02/01 03:59:20;;;;;;;17.75;2.65;;;;;;;1.67;100.00;99297.47;5025611;28;20052;-83
2022/02/01 04:01:48;;;;;;;16.55;3.05;;;;;;;1.78;100.00;99334.09;5031738;28;20130;-83
2022/02/01 04:04:14;;;;;;;11.77;2.88;;;;;;;1.74;100.00;99340.69;5032697;28;20511;-83
2022/02/01 04:06:41;;;;;;;21.40;3.70;;;;;;;1.80;100.00;99356.28;5029674;28;20068;-83
2022/02/01 04:09:08;;;;;;;12.10;2.97;;;;;;;1.80;100.00;99355.44;5032721;28;20053;-83
2022/02/01 04:11:35;;;;;;;15.25;2.30;;;;;;;1.70;100.00;99347.25;5021520;28;20053;-82
2022/02/01 04:14:01;;;;;;;16.27;2.80;;;;;;;1.73;100.00;99365.78;5026677;28;20136;-83
2022/02/01 04:16:28;;;;;;;29.83;4.15;;;;;;;1.67;100.00;99361.78;5031722;28;20136;-83
2022/02/01 04:18:57;;;;;;;23.38;5.15;;;;;;;1.61;100.00;99362.25;5029763;28;20130;-83
2022/02/01 04:21:24;;;;;;;19.52;2.97;;;;;;;1.58;100.00;99359.81;5025933;28;21633;-83
2022/02/01 04:23:50;;;;;;;18.30;3.00;;;;;;;1.64;100.00;99371.88;5029734;28;20132;-82
2022/02/01 04:26:17;;;;;;;18.15;3.03;;;;;;;1.67;100.00;99385.03;5030727;28;20421;-83
2022/02/01 04:28:44;;;;;;;14.95;2.78;;;;;;;1.73;100.00;99396.13;5030983;28;20045;-82
2022/02/01 04:31:10;;;;;;;12.45;2.35;;;;;;;1.59;100.00;99393.69;5031325;28;20073;-83
2022/02/01 04:33:37;;;;;;;10.90;2.55;;;;;;;1.61;100.00;99394.41;5023501;28;20073;-83
2022/02/01 04:36:06;;;;;;;17.27;2.90;;;;;;;1.65;100.00;99385.16;5028961;28;20059;-82
2022/02/01 04:38:35;;;;;;;16.60;2.22;;;;;;;1.56;100.00;99373.34;5029551;28;20065;-83
2022/02/01 04:41:02;;;;;;;18.60;2.75;;;;;;;1.68;100.00;99392.09;5033038;28;20045;-83
2022/02/01 04:43:29;;;;;;;17.50;3.97;;;;;;;1.57;100.00;99390.28;5033976;28;20046;-82
2022/02/01 04:46:04;;;;;;;20.13;4.03;;;;;;;1.50;100.00;99383.69;5030821;28;20132;-83
2022/02/01 04:48:31;;;;;;;6.43;2.03;;;;;;;1.68;100.00;99394.78;5027515;28;20064;-83
2022/02/01 04:50:58;;;;;;;21.80;3.33;;;;;;;1.67;100.00;99403.78;5029072;28;20515;-83
2022/02/01 04:53:26;;;;;;;15.40;3.25;;;;;;;1.58;100.00;99384.81;5030753;28;20049;-83
2022/02/01 04:55:54;;;;;;;26.25;3.38;;;;;;;1.51;100.00;99382.75;5029750;28;20057;-82
2022/02/01 04:58:22;;;;;;;17.27;3.15;;;;;;;1.58;100.00;99406.25;5030700;28;20401;-84
2022/02/01 05:00:49;;;;;;;24.20;3.42;;;;;;;1.62;100.00;99414.88;5030944;28;20047;-83
2022/02/01 05:03:16;;;;;;;12.52;3.33;;;;;;;1.54;100.00;99406.59;5031561;28;20081;-82
2022/02/01 05:05:42;;;;;;;22.85;2.75;;;;;;;1.48;100.00;99396.38;5028965;28;20073;-83
2022/02/01 05:08:11;;;;;;;14.52;2.20;;;;;;;1.55;100.00;99416.34;5028379;28;20128;-83
2022/02/01 05:10:39;;;;;;;13.18;2.40;;;;;;;1.49;100.00;99424.84;5031973;28;20057;-83
2022/02/01 05:13:42;;;;;;;18.83;2.83;;;;;;;1.64;100.00;99447.78;5031609;28;20484;-84
2022/02/01 05:16:12;;;;;;;13.85;2.90;;;;;;;1.69;100.00;99445.59;5032879;28;20053;-83
2022/02/01 05:18:45;;;;;;;24.00;3.38;;;;;;;1.48;100.00;99417.81;5031521;28;20037;-83
2022/02/01 05:21:18;;;;;;;16.33;2.85;;;;;;;1.57;100.00;99444.72;5033586;28;20137;-84
2022/02/01 05:23:45;;;;;;;16.08;3.13;;;;;;;1.50;100.00;99426.56;5033148;28;20054;-83
2022/02/01 05:26:14;;;;;;;16.58;2.47;;;;;;;1.54;100.00;99447.66;5032244;28;20143;-83
2022/02/01 05:28:41;;;;;;;14.10;2.45;;;;;;;1.52;100.00;99465.69;5030130;28;20045;-83
2022/02/01 05:31:08;;;;;;;18.73;2.40;;;;;;;1.38;100.00;99447.13;5031697;28;20060;-83
2022/02/01 05:33:36;;;;;;;10.57;1.67;;;;;;;1.50;100.00;99458.72;5033501;28;20055;-82
2022/02/01 05:36:04;;;;;;;15.70;2.40;;;;;;;1.41;100.00;99455.78;5032849;28;20462;-83
2022/02/01 05:38:35;;;;;;;9.70;2.22;;;;;;;1.40;100.00;99454.09;5034807;28;20536;-83
2022/02/01 05:41:02;;;;;;;20.92;3.50;;;;;;;1.42;100.00;99459.31;5034463;28;20481;-83
2022/02/01 05:43:30;;;;;;;16.35;3.70;;;;;;;1.45;100.00;99463.59;5030981;28;20076;-83
2022/02/01 05:45:58;;;;;;;14.18;2.15;;;;;;;1.48;99.99;99463.38;5032968;28;20050;-83
2022/02/01 05:48:25;;;;;;;12.18;2.75;;;;;;;1.45;100.00;99451.06;5032053;28;20076;-83
2022/02/01 05:50:55;;;;;;;13.68;2.80;;;;;;;1.42;99.02;99440.56;5033548;28;20405;-83
2022/02/01 05:53:22;;;;;;;12.88;2.55;;;;;;;1.31;100.00;99427.16;5034213;28;20654;-83
2022/02/01 05:55:50;;;;;;;18.42;2.60;;;;;;;1.42;100.00;99437.91;5027178;28;20135;-83
2022/02/01 05:58:17;;;;;;;14.45;2.97;;;;;;;1.34;100.00;99432.25;5023826;28;20053;-83
2022/02/01 06:00:45;;;;;;;24.33;3.42;;;;;;;1.34;100.00;99445.66;5030898;28;20059;-83
2022/02/01 06:03:12;;;;;;;18.45;3.00;;;;;;;1.29;100.00;99431.78;5042708;28;20047;-83
2022/02/01 06:05:39;;;;;;;16.02;3.00;;;;;;;1.31;100.00;99452.13;5032371;28;20145;-83
2022/02/01 06:08:06;;;;;;;21.05;3.40;;;;;;;1.28;100.00;99452.38;5021851;28;20528;-83
2022/02/01 06:10:33;;;;;;;4.70;1.83;;;;;;;1.30;100.00;99455.78;5034858;28;20073;-83
2022/02/01 06:13:00;;;;;;;14.95;3.40;;;;;;;1.36;100.00;99446.41;5034959;28;20053;-83
2022/02/01 06:15:28;;;;;;;15.27;3.92;;;;;;;1.33;100.00;99441.28;5034942;28;20045;-83
2022/02/01 06:17:59;;;;;;;18.55;3.80;;;;;;;1.31;100.00;99437.88;5034880;28;20129;-83
2022/02/01 06:20:27;;;;;;;17.65;4.38;;;;;;;1.32;100.00;99458.34;5036470;28;20099;-83
2022/02/01 06:22:54;;;;;;;14.15;2.78;;;;;;;1.31;99.73;99445.91;5029419;28;20095;-83
2022/02/01 06:25:39;;;;;;;13.20;2.55;;;;;;;1.31;100.00;99478.91;5034504;28;20500;-83
2022/02/01 06:28:06;;;;;;;23.13;2.88;;;;;;;1.42;100.00;99486.97;5026748;28;20049;-83
2022/02/01 06:30:33;;;;;;;11.98;2.50;;;;;;;1.22;98.61;99460.88;5033611;28;20524;-83
2022/02/01 06:33:01;;;;;;;11.23;2.63;;;;;;;1.31;100.00;99470.88;5034121;28;20069;-83
2022/02/01 06:35:30;;;;;;;11.10;2.47;;;;;;;1.33;100.00;99481.47;5034603;28;20049;-83
2022/02/01 06:37:57;;;;;;;16.27;2.47;;;;;;;1.21;100.00;99472.56;5041830;28;20045;-83
2022/02/01 06:40:24;;;;;;;9.88;2.15;;;;;;;1.23;100.00;99479.50;5044914;28;20318;-82
2022/02/01 06:42:52;;;;;;;9.98;1.73;;;;;;;1.23;100.00;99482.19;5041675;28;20465;-83
2022/02/01 06:45:18;;;;;;;10.45;2.00;;;;;;;1.30;100.00;99495.09;5033999;28;20508;-83
2022/02/01 06:47:45;;;;;;;15.93;2.83;;;;;;;1.21;100.00;99500.19;5033246;28;20099;-83
2022/02/01 06:50:16;;;;;;;10.57;1.70;;;;;;;1.18;100.00;99507.59;5016411;28;20085;-83
2022/02/01 06:52:42;;;;;;;14.57;1.75;;;;;;;1.15;100.00;99508.69;5014453;28;20060;-83
2022/02/01 06:55:12;;;;;;;15.70;3.42;;;;;;;1.05;100.00;99496.97;5029204;28;20116;-83
2022/02/01 06:57:39;;;;;;;11.73;2.67;;;;;;;0.98;100.00;99493.91;5029627;28;20061;-83
2022/02/01 07:00:13;;;;;;;10.65;3.55;;;;;;;1.13;100.00;99537.41;5019288;28;21538;-85
2022/02/01 07:02:42;;;;;;;12.27;1.90;;;;;;;1.04;100.00;99536.28;5033637;28;20041;-82
2022/02/01 07:05:28;;;;;;;17.85;2.50;;;;;;;1.13;100.00;99534.75;5027027;28;20056;-82
2022/02/01 07:07:58;;;;;;;13.80;2.60;;;;;;;1.11;100.00;99555.41;5027298;28;20390;-82
2022/02/01 07:10:25;;;;;;;13.35;2.25;;;;;;;1.15;100.00;99558.72;5026383;28;20050;-82
2022/02/01 07:12:52;;;;;;;9.00;2.03;;;;;;;1.12;100.00;99558.94;5024024;28;20512;-81
2022/02/01 07:15:32;;;;;;;15.55;2.83;;;;;;;1.09;100.00;99569.91;5026504;28;20485;-82
2022/02/01 07:18:21;;;;;;;18.38;3.00;;;;;;;1.11;100.00;99579.50;5030135;28;20045;-82
2022/02/01 07:20:51;;;;;;;19.02;2.65;;;;;;;1.08;100.00;99566.34;5011802;28;20133;-83
2022/02/01 07:23:22;;;;;;;;;;;;;;;1.14;100.00;99559.69;5027706;28;20576;-82
2022/02/01 07:25:59;;;;;;;19.58;3.80;;;;;;;1.12;100.00;99562.47;5028704;28;19975;-82
2022/02/01 07:28:28;;;;;;;7.82;2.22;;;;;;;1.06;100.00;99549.56;5026506;28;20049;-83
2022/02/01 07:30:55;;;;;;;12.40;2.53;;;;;;;1.04;100.00;99538.94;5027535;28;20061;-83
2022/02/01 07:33:23;;;;;;;5.38;1.73;;;;;;;1.18;100.00;99559.34;5034075;28;20048;-83
2022/02/01 07:35:51;;;;;;;11.55;2.67;;;;;;;1.26;100.00;99547.19;5037631;28;20128;-83
2022/02/01 07:38:22;;;;;;;18.20;2.33;;;;;;;1.21;100.00;99542.19;5036475;28;20137;-84
2022/02/01 07:40:50;;;;;;;10.32;1.70;;;;;;;1.24;100.00;99541.97;5032818;28;20045;-83
2022/02/01 07:43:17;;;;;;;12.95;1.83;;;;;;;1.20;100.00;99527.94;5032013;28;20049;-83
2022/02/01 07:45:46;;;;;;;10.57;1.90;;;;;;;1.29;100.00;99557.69;5033241;28;20092;-83
2022/02/01 07:48:13;;;;;;;10.27;1.73;;;;;;;1.17;100.00;99536.19;5032353;28;20057;-83
2022/02/01 07:50:42;;;;;;;7.43;1.85;;;;;;;1.22;100.00;99544.75;5032339;28;20390;-84
2022/02/01 07:53:10;;;;;;;11.10;2.03;;;;;;;1.20;100.00;99554.72;5033036;28;20667;-83
2022/02/01 07:55:38;;;;;;;11.77;2.45;;;;;;;1.14;100.00;99530.22;5027975;28;20446;-83
2022/02/01 07:58:05;;;;;;;4.18;1.70;;;;;;;1.30;100.00;99551.34;5033443;28;20050;-83
2022/02/01 08:00:32;;;;;;;17.17;3.08;;;;;;;1.24;100.00;99550.00;5031451;28;20136;-83
2022/02/01 08:02:59;;;;;;;18.55;2.03;;;;;;;1.21;100.00;99540.34;5032910;28;20061;-83
2022/02/01 08:05:29;;;;;;;13.75;2.50;;;;;;;1.30;100.00;99564.75;5036809;28;20080;-83
2022/02/01 08:07:56;;;;;;;14.80;2.28;;;;;;;1.23;100.00;99559.00;5034527;28;20085;-84
2022/02/01 08:10:27;;;;;;;12.95;3.20;;;;;;;1.37;100.00;99590.09;5032078;28;20484;-83
2022/02/01 08:18:35;;;;;;;11.27;2.45;;;;;;;1.39;100.00;99554.19;5012754;28;20046;-83
2022/02/01 08:21:05;;;;;;;10.63;2.20;;;;;;;1.48;100.00;99573.22;5029786;28;20489;-83
2022/02/01 08:23:35;;;;;;;3.80;1.60;;;;;;;1.43;100.00;99568.22;5032481;28;20383;-83
2022/02/01 08:26:04;;;;;;;7.15;1.90;;;;;;;1.54;100.00;99580.78;5022172;28;20145;-83
2022/02/01 08:28:31;;;;;;;6.38;1.90;;;;;;;1.42;100.00;99571.84;5011361;28;20460;-83
2022/02/01 08:30:57;;;;;;;12.60;2.78;;;;;;;1.49;100.00;99565.06;5024979;28;20091;-83
2022/02/01 08:33:24;;;;;;;14.57;2.80;;;;;;;1.51;100.00;99568.47;5044178;28;20053;-83
2022/02/01 08:35:51;;;;;;;16.55;2.17;;;;;;;1.45;100.00;99571.63;5050707;28;20085;-83
2022/02/01 08:38:18;;;;;;;15.13;2.83;;;;;;;1.59;100.00;99582.13;5050833;28;20102;-84
2022/02/01 08:40:46;;;;;;;12.52;2.63;;;;;;;1.57;100.00;99607.34;5035473;28;20041;-84
2022/02/01 08:43:15;;;;;;;8.57;1.60;;;;;;;1.55;100.00;99591.41;5030795;28;20057;-83
2022/02/01 08:45:42;;;;;;;11.23;2.10;;;;;;;1.58;100.00;99595.63;5046510;28;20045;-83
2022/02/01 08:48:09;;;;;;;12.30;2.67;;;;;;;1.65;100.00;99588.00;5050397;28;20417;-83
2022/02/01 08:50:37;;;;;;;11.25;2.70;;;;;;;1.62;100.00;99558.75;5037706;28;20132;-83
2022/02/01 08:53:13;;;;;;;16.23;2.85;;;;;;;1.69;100.00;99573.41;5030693;28;20057;-83
2022/02/01 08:56:00;;;;;;;8.50;2.47;;;;;;;1.66;100.00;99571.81;5028842;28;20072;-83
2022/02/01 08:58:29;;;;;;;16.00;2.60;;;;;;;1.82;100.00;99573.28;5029463;28;20127;-83
2022/02/01 09:00:56;;;;;;;19.38;3.10;;;;;;;1.82;100.00;99571.44;5033666;28;20041;-83
2022/02/01 09:03:23;;;;;;;11.30;2.47;;;;;;;1.87;100.00;99557.72;5030543;28;20449;-84
2022/02/01 09:05:51;;;;;;;18.65;2.38;;;;;;;1.96;100.00;99559.69;5030135;28;20505;-83
2022/02/01 09:08:19;;;;;;;7.20;2.05;;;;;;;2.09;100.00;99581.00;5030609;28;20452;-83
2022/02/01 09:10:46;;;;;;;10.98;2.90;;;;;;;2.08;100.00;99571.28;5030361;28;20127;-83
2022/02/01 09:13:13;;;;;;;15.20;2.78;;;;;;;2.02;100.00;99575.28;5028964;28;20551;-83
2022/02/01 09:15:41;;;;;;;8.30;2.17;;;;;;;1.99;100.00;99578.22;5037942;28;20175;-83
2022/02/01 09:18:08;;;;;;;11.05;2.40;;;;;;;1.93;100.00;99570.66;5030151;28;20057;-83
2022/02/01 09:20:35;;;;;;;10.05;2.38;;;;;;;1.86;100.00;99580.13;5029925;28;20140;-83
2022/02/01 09:23:03;;;;;;;17.13;2.65;;;;;;;1.79;100.00;99558.28;5030609;28;20132;-83
2022/02/01 09:25:30;;;;;;;8.63;2.42;;;;;;;1.90;100.00;99568.19;5030366;28;20056;-83
2022/02/01 09:27:57;;;;;;;15.48;2.33;;;;;;;1.92;100.00;99569.78;5030328;28;20133;-83
2022/02/01 09:30:24;;;;;;;287.48;33.38;;;;;;;1.92;100.00;99556.38;5027523;28;20120;-84
2022/02/01 09:32:53;;;;;;;13.73;2.50;;;;;;;1.92;100.00;99552.84;5029662;28;20141;-83
2022/02/01 09:35:19;;;;;;;19.45;3.45;;;;;;;1.97;100.00;99552.47;5030097;28;20130;-84
2022/02/01 09:37:48;;;;;;;19.55;5.38;;;;;;;2.02;100.00;99550.28;5037526;28;20400;-82
2022/02/01 09:40:15;;;;;;;6.65;2.20;;;;;;;2.03;100.00;99542.13;5035092;28;20760;-83
2022/02/01 09:42:42;;;;;;;6.75;2.67;;;;;;;2.11;100.00;99542.38;5030452;28;20049;-83
2022/02/01 09:45:10;;;;;;;16.30;2.88;;;;;;;2.07;100.00;99527.50;5029777;28;20057;-83
2022/02/01 09:47:39;;;;;;;25.33;2.92;;;;;;;2.09;100.00;99522.88;5030221;28;20123;-83
2022/02/01 09:50:08;;;;;;;10.20;1.90;;;;;;;2.20;100.00;99539.91;5027081;28;20140;-83
2022/02/01 09:52:37;;;;;;;9.80;1.70;;;;;;;2.28;100.00;99540.19;5037977;28;20473;-84
2022/02/01 09:55:09;;;;;;;7.22;2.13;;;;;;;2.12;100.00;99537.84;5049648;28;20353;-84
2022/02/01 09:57:36;;;;;;;17.48;3.13;;;;;;;2.16;100.00;99533.13;5053395;28;20076;-83
2022/02/01 10:00:13;;;;;;;7.97;1.95;;;;;;;2.18;100.00;99529.31;5049017;28;20073;-84
2022/02/01 10:02:42;;;;;;;15.27;2.60;;;;;;;2.25;100.00;99549.31;5034131;28;20054;-84
2022/02/01 10:05:12;;;;;;;8.10;2.00;;;;;;;2.26;100.00;99540.31;5033417;28;20045;-83
2022/02/01 10:07:51;;;;;;;7.18;1.85;;;;;;;2.22;99.93;99541.50;5025544;28;20405;-85
2022/02/01 10:10:18;;;;;;;6.28;1.58;;;;;;;2.24;99.97;99536.91;5032781;28;20132;-84
2022/02/01 10:12:57;;;;;;;15.00;2.22;;;;;;;2.27;99.13;99546.50;5033716;28;20049;-83
2022/02/01 10:15:26;;;;;;;11.13;2.38;;;;;;;2.47;100.00;99540.41;5033012;28;20050;-83
2022/02/01 10:17:58;;;;;;;8.85;1.60;;;;;;;2.51;99.52;99524.06;5033594;28;20064;-84
2022/02/01 10:20:36;;;;;;;98.57;13.23;;;;;;;2.73;100.00;99528.53;5031419;28;20489;-82
2022/02/01 10:23:17;;;;;;;7.45;2.15;;;;;;;2.78;98.16;99518.25;5040218;28;20056;-83
2022/02/01 10:25:58;;;;;;;12.80;2.67;;;;;;;2.72;97.31;99503.50;5041416;28;20425;-83
2022/02/01 10:28:25;;;;;;;13.52;2.35;;;;;;;2.76;97.13;99506.78;5039901;28;20470;-83
2022/02/01 10:30:52;;;;;;;15.55;4.10;;;;;;;2.96;97.51;99523.94;5036871;28;20065;-83
2022/02/01 10:36:35;;;;;;;11.55;2.20;;;;;;;2.87;96.25;99504.06;4991452;28;20170;-83
2022/02/01 10:39:02;;;;;;;8.55;2.03;;;;;;;2.99;94.75;99516.47;5026578;28;20056;-84
2022/02/01 10:41:29;;;;;;;8.25;1.73;;;;;;;3.04;92.97;99513.41;5032175;28;20056;-83
2022/02/01 10:43:56;;;;;;;15.80;1.88;;;;;;;3.05;92.63;99525.00;5032631;28;20133;-84
2022/02/01 10:46:25;;;;;;;47.15;8.55;;;;;;;3.01;91.32;99506.47;5032505;28;20056;-84
2022/02/01 10:48:53;;;;;;;6.95;3.38;;;;;;;2.92;91.48;99499.19;5049878;28;20144;-84
2022/02/01 10:51:22;;;;;;;6.47;1.63;;;;;;;3.10;92.81;99518.28;5042176;28;20551;-84
2022/02/01 10:53:51;;;;;;;13.25;2.03;;;;;;;3.01;89.67;99495.72;5038397;28;20083;-84
2022/02/01 10:56:20;;;;;;;7.97;1.80;;;;;;;2.99;88.00;99494.97;5033011;28;20053;-83
2022/02/01 10:58:49;;;;;;;9.35;1.52;;;;;;;3.01;88.33;99494.84;5032962;28;20087;-83
2022/02/01 11:01:16;;;;;;;7.88;1.92;;;;;;;3.04;89.69;99485.69;5032052;28;20067;-83
2022/02/01 11:03:44;;;;;;;7.60;1.50;;;;;;;2.99;84.32;99470.81;5032432;28;20056;-84
2022/02/01 11:06:11;;;;;;;5.57;1.80;;;;;;;2.95;84.99;99466.69;5031495;28;20053;-83
2022/02/01 11:08:41;;;;;;;8.77;1.75;;;;;;;2.82;83.53;99448.06;5031176;28;20049;-84
2022/02/01 11:11:16;;;;;;;4.40;1.33;;;;;;;2.79;85.31;99447.47;5040246;28;20144;-83
2022/02/01 11:13:46;;;;;;;7.72;2.00;;;;;;;2.77;86.63;99422.56;5032265;28;20104;-83
2022/02/01 11:16:18;;;;;;;5.57;1.73;;;;;;;2.77;84.88;99426.13;5032397;28;20061;-83
2022/02/01 11:18:54;;;;;;;7.35;2.05;;;;;;;2.92;85.33;99432.03;5032428;28;20056;-83
2022/02/01 11:21:21;;;;;;;7.57;2.20;;;;;;;2.88;84.75;99414.47;5031746;28;20613;-84
2022/02/01 11:23:53;;;;;;;16.67;1.92;;;;;;;2.69;85.31;99395.53;5032285;28;20053;-84
2022/02/01 11:26:25;;;;;;;3.78;1.55;;;;;;;2.68;85.13;99391.13;5037896;28;20053;-84
2022/02/01 11:29:15;;;;;;;13.98;1.90;;;;;;;2.81;85.78;99408.75;5049558;28;20053;-84
2022/02/01 11:31:44;;;;;;;10.45;2.17;;;;;;;2.85;87.00;99395.09;5036420;28;20111;-83
2022/02/01 11:34:16;;;;;;;6.05;1.17;;;;;;;2.80;87.91;99408.88;5032038;28;20049;-83
2022/02/01 11:36:42;;;;;;;7.35;1.52;;;;;;;2.80;88.57;99399.00;5031931;28;20045;-84
2022/02/01 11:39:12;;;;;;;5.90;1.67;;;;;;;2.78;91.19;99384.84;5031030;28;20050;-84
2022/02/01 11:41:42;;;;;;;8.98;1.48;;;;;;;2.75;89.92;99384.25;5030176;28;20057;-83
2022/02/01 11:44:09;;;;;;;;;;;;;;;2.74;89.37;99377.19;5051566;28;20079;-84
2022/02/01 11:46:36;;;;;;;8.10;1.63;;;;;;;2.66;89.51;99377.81;5051846;28;19927;-84
2022/02/01 11:49:04;;;;;;;2.88;1.42;;;;;;;2.62;89.01;99371.00;5051745;28;20048;-84
2022/02/01 11:51:32;;;;;;;8.60;1.65;;;;;;;2.59;90.22;99355.16;5038565;28;20057;-83
2022/02/01 11:54:03;;;;;;;3.30;1.05;;;;;;;2.75;91.13;99360.09;5031201;28;20053;-84
2022/02/01 11:56:33;;;;;;;5.50;1.40;;;;;;;2.72;90.36;99352.31;5031649;28;20084;-83
2022/02/01 11:59:07;;;;;;;6.95;1.58;;;;;;;2.62;91.98;99330.75;5032310;28;20053;-83
2022/02/01 12:01:36;;;;;;;9.45;1.35;;;;;;;2.65;90.87;99317.94;5041431;28;20128;-83
2022/02/01 12:04:07;;;;;;;5.57;1.42;;;;;;;2.63;89.38;99300.25;5051244;28;20059;-83
2022/02/01 12:06:47;;;;;;;6.22;1.27;;;;;;;2.76;90.69;99300.06;5051462;28;20049;-83
2022/02/01 12:12:16;;;;;;;149.02;19.52;;;;;;;2.75;90.81;99298.34;5031336;28;20049;-83
2022/02/01 12:14:58;;;;;;;9.43;1.05;;;;;;;2.59;91.32;99304.16;5021880;28;20049;-83
2022/02/01 12:17:27;;;;;;;11.07;5.35;;;;;;;2.75;91.08;99317.13;5021080;28;20041;-83
2022/02/01 12:20:05;;;;;;;1.02;0.80;;;;;;;2.74;90.79;99300.19;5039970;28;20045;-83
2022/02/01 12:22:36;;;;;;;7.40;1.45;;;;;;;2.70;89.36;99292.53;5051088;28;20060;-83
2022/02/01 12:25:04;;;;;;;7.22;1.17;;;;;;;2.76;88.31;99286.63;5051148;28;20134;-83
2022/02/01 12:27:34;;;;;;;8.57;1.60;;;;;;;2.65;90.84;99271.47;5043778;28;20143;-84
2022/02/01 12:30:05;;;;;;;2.40;0.95;;;;;;;2.66;90.82;99270.47;5014787;28;20046;-83
2022/02/01 12:32:34;;;;;;;8.10;1.05;;;;;;;2.69;90.04;99267.50;5011224;28;20073;-84
2022/02/01 12:35:02;;;;;;;9.68;2.45;;;;;;;2.58;91.18;99246.97;5039758;28;20054;-83
2022/02/01 12:37:30;;;;;;;1714.90;234.88;;;;;;;2.67;90.57;99255.22;5041650;28;20049;-83
2022/02/01 12:40:03;;;;;;;5.15;1.50;;;;;;;2.60;90.53;99218.13;5030950;28;20095;-83